| time (UTC) | temp C | wind direction | speed KPH | gust KPH | rain 1hr cm | rain 24hr cm | rain mn cm | humidity % | barometer mb |
| 20260905222520 | 18 | 262 | 1.6 | 6.4 | 0.00 | 0.28 | 0.00 | 69 | 1024.6 |
| 20260905221517 | 18 | 274 | 6.4 | 12.9 | 0.00 | 0.28 | 0.00 | 67 | 1024.5 |
| 20260905220520 | 19 | 346 | 3.2 | 6.4 | 0.00 | 0.28 | 0.00 | 66 | 1024.3 |
| 20260905215519 | 20 | 259 | 11.3 | 17.7 | 0.00 | 0.28 | 0.28 | 64 | 1024.1 |
| 20260905214542 | 20 | 247 | 12.9 | 20.9 | 0.00 | 0.28 | 0.28 | 63 | 1023.9 |
| 20260905213517 | 20 | 245 | 11.3 | 25.7 | 0.00 | 0.28 | 0.28 | 63 | 1023.7 |
| 20260905212521 | 20 | 248 | 12.9 | 27.4 | 0.00 | 0.28 | 0.28 | 62 | 1023.6 |
| 20260905211521 | 20 | 245 | 12.9 | 20.9 | 0.00 | 0.28 | 0.28 | 62 | 1023.5 |
| 20260905210517 | 20 | 244 | 12.9 | 22.5 | 0.00 | 0.28 | 0.28 | 61 | 1023.5 |
| 20260905205520 | 20 | 241 | 12.9 | 25.7 | 0.00 | 0.28 | 0.28 | 60 | 1023.4 |
| 20260905204521 | 20 | 237 | 12.9 | 24.1 | 0.00 | 0.28 | 0.28 | 60 | 1023.5 |
| 20260905203522 | 20 | 241 | 12.9 | 20.9 | 0.00 | 0.28 | 0.28 | 59 | 1023.3 |
| 20260905202518 | 20 | 240 | 12.9 | 22.5 | 0.00 | 0.28 | 0.28 | 59 | 1023.2 |
| 20260905201519 | 21 | 235 | 11.3 | 20.9 | 0.00 | 0.28 | 0.28 | 59 | 1023.2 |
| 20260905200544 | 21 | 236 | 12.9 | 25.7 | 0.00 | 0.28 | 0.28 | 59 | 1023.0 |
| 20260905195521 | 21 | 236 | 9.7 | 19.3 | 0.00 | 0.28 | 0.28 | 59 | 1023.0 |
| 20260905194517 | 21 | 237 | 11.3 | 24.1 | 0.00 | 0.28 | 0.28 | 59 | 1023.0 |
| 20260905193520 | 21 | 241 | 12.9 | 20.9 | 0.00 | 0.28 | 0.28 | 59 | 1022.9 |
| 20260905192520 | 21 | 240 | 12.9 | 22.5 | 0.00 | 0.28 | 0.28 | 59 | 1022.8 |
| 20260905191519 | 21 | 235 | 12.9 | 24.1 | 0.00 | 0.28 | 0.28 | 59 | 1022.7 |
| 20260905190603 | 21 | 236 | 12.9 | 24.1 | 0.00 | 0.28 | 0.28 | 59 | 1022.7 |
| 20260905185522 | 21 | 240 | 11.3 | 24.1 | 0.00 | 0.28 | 0.28 | 59 | 1022.5 |
| 20260905184521 | 21 | 235 | 8.0 | 16.1 | 0.00 | 0.28 | 0.28 | 59 | 1022.5 |
| 20260905183517 | 21 | 237 | 9.7 | 16.1 | 0.00 | 0.28 | 0.28 | 58 | 1022.3 |
| 20260905182519 | 21 | 244 | 11.3 | 20.9 | 0.00 | 0.28 | 0.28 | 57 | 1022.2 |
| 20260905181522 | 21 | 245 | 11.3 | 19.3 | 0.00 | 0.28 | 0.28 | 57 | 1022.1 |
| 20260905180542 | 21 | 244 | 11.3 | 20.9 | 0.00 | 0.28 | 0.28 | 56 | 1022.0 |
| 20260905175519 | 22 | 242 | 12.9 | 24.1 | 0.00 | 0.28 | 0.28 | 55 | 1021.7 |
| 20260905174519 | 22 | 245 | 12.9 | 24.1 | 0.00 | 0.28 | 0.28 | 55 | 1021.5 |
| 20260905173542 | 22 | 239 | 11.3 | 22.5 | 0.00 | 0.28 | 0.28 | 54 | 1021.5 |
| 20260905172518 | 22 | 240 | 11.3 | 20.9 | 0.00 | 0.28 | 0.28 | 54 | 1021.4 |
| 20260905171520 | 22 | 243 | 12.9 | 19.3 | 0.00 | 0.28 | 0.28 | 53 | 1021.5 |
| 20260905170520 | 22 | 248 | 16.1 | 29.0 | 0.00 | 0.28 | 0.28 | 52 | 1021.5 |
| 20260905165536 | 23 | 246 | 11.3 | 20.9 | 0.00 | 0.28 | 0.28 | 51 | 1021.2 |
| 20260905164538 | 23 | 249 | 14.5 | 24.1 | 0.00 | 0.28 | 0.28 | 50 | 1021.2 |
| 20260905163519 | 23 | 250 | 17.7 | 29.0 | 0.00 | 0.28 | 0.28 | 49 | 1021.2 |
| 20260905162523 | 23 | 244 | 12.9 | 25.7 | 0.00 | 0.28 | 0.28 | 48 | 1020.8 |
| 20260905161518 | 23 | 248 | 17.7 | 35.4 | 0.00 | 0.28 | 0.28 | 48 | 1020.9 |
| 20260905160519 | 24 | 250 | 16.1 | 25.7 | 0.00 | 0.28 | 0.28 | 48 | 1020.9 |
| 20260905155521 | 24 | 247 | 14.5 | 27.4 | 0.00 | 0.28 | 0.28 | 47 | 1020.8 |
| 20260905154519 | 24 | 250 | 20.9 | 33.8 | 0.00 | 0.28 | 0.28 | 46 | 1020.7 |
| 20260905153520 | 24 | 252 | 22.5 | 33.8 | 0.00 | 0.28 | 0.28 | 47 | 1020.7 |
| 20260905152518 | 24 | 250 | 22.5 | 37.0 | 0.00 | 0.28 | 0.28 | 46 | 1020.7 |
| 20260905151519 | 24 | 249 | 20.9 | 33.8 | 0.00 | 0.28 | 0.28 | 47 | 1020.6 |
| 20260905150522 | 23 | 250 | 20.9 | 37.0 | 0.00 | 0.28 | 0.28 | 48 | 1020.7 |
| 20260905145603 | 23 | 249 | 19.3 | 32.2 | 0.00 | 0.28 | 0.28 | 48 | 1020.8 |
| 20260905144518 | 23 | 250 | 20.9 | 37.0 | 0.00 | 0.28 | 0.28 | 49 | 1020.8 |
| 20260905143520 | 23 | 246 | 19.3 | 33.8 | 0.00 | 0.28 | 0.28 | 50 | 1020.6 |
| 20260905142520 | 23 | 251 | 22.5 | 32.2 | 0.00 | 0.28 | 0.28 | 50 | 1020.7 |
| 20260905141520 | 23 | 250 | 17.7 | 37.0 | 0.00 | 0.28 | 0.28 | 50 | 1020.7 |
| 20260905140517 | 23 | 249 | 17.7 | 38.6 | 0.00 | 0.28 | 0.28 | 51 | 1020.7 |
| 20260905135520 | 23 | 246 | 20.9 | 35.4 | 0.00 | 0.28 | 0.28 | 52 | 1020.8 |
| 20260905134520 | 23 | 248 | 20.9 | 35.4 | 0.00 | 0.28 | 0.28 | 53 | 1021.0 |
| 20260905133518 | 22 | 242 | 17.7 | 32.2 | 0.00 | 0.28 | 0.28 | 54 | 1021.0 |
| 20260905132519 | 23 | 242 | 14.5 | 30.6 | 0.00 | 0.28 | 0.28 | 54 | 1021.0 |
| 20260905131520 | 22 | 249 | 19.3 | 32.2 | 0.00 | 0.28 | 0.28 | 54 | 1021.2 |
| 20260905130539 | 22 | 248 | 19.3 | 35.4 | 0.00 | 0.28 | 0.28 | 55 | 1021.4 |
| 20260905125519 | 22 | 248 | 22.5 | 38.6 | 0.00 | 0.28 | 0.28 | 54 | 1021.4 |
| 20260905124521 | 22 | 246 | 17.7 | 33.8 | 0.00 | 0.28 | 0.28 | 56 | 1021.3 |
| 20260905123518 | 22 | 252 | 25.7 | 41.8 | 0.00 | 0.28 | 0.28 | 56 | 1021.5 |
| 20260905122519 | 22 | 245 | 20.9 | 40.2 | 0.00 | 0.28 | 0.28 | 56 | 1021.4 |
| 20260905121521 | 21 | 240 | 19.3 | 32.2 | 0.00 | 0.28 | 0.28 | 57 | 1021.4 |
| 20260905120517 | 21 | 243 | 20.9 | 37.0 | 0.00 | 0.28 | 0.28 | 58 | 1021.3 |
| 20260905115518 | 21 | 235 | 16.1 | 37.0 | 0.00 | 0.28 | 0.28 | 59 | 1021.3 |
| 20260905114522 | 21 | 241 | 17.7 | 35.4 | 0.00 | 0.28 | 0.28 | 59 | 1021.4 |
| 20260905113518 | 21 | 241 | 19.3 | 38.6 | 0.00 | 0.28 | 0.28 | 61 | 1021.4 |
| 20260905112519 | 21 | 244 | 20.9 | 46.7 | 0.00 | 0.28 | 0.28 | 63 | 1021.4 |
| 20260905111521 | 20 | 244 | 20.9 | 46.7 | 0.00 | 0.28 | 0.28 | 64 | 1021.4 |
| 20260905110520 | 20 | 247 | 25.7 | 46.7 | 0.00 | 0.28 | 0.28 | 65 | 1021.5 |
| 20260905105519 | 20 | 246 | 29.0 | 45.1 | 0.00 | 0.28 | 0.28 | 67 | 1021.5 |
| 20260905104541 | 19 | 247 | 22.5 | 45.1 | 0.00 | 0.28 | 0.28 | 71 | 1021.5 |
| 20260905103519 | 19 | 250 | 32.2 | 46.7 | 0.00 | 0.28 | 0.28 | 72 | 1021.6 |
| 20260905102521 | 19 | 248 | 25.7 | 45.1 | 0.00 | 0.28 | 0.28 | 74 | 1021.6 |
| 20260905101538 | 18 | 248 | 25.7 | 41.8 | 0.00 | 0.28 | 0.28 | 76 | 1021.9 |
| 20260905100518 | 18 | 248 | 25.7 | 40.2 | 0.00 | 0.28 | 0.28 | 77 | 1021.9 |
| 20260905095540 | 18 | 247 | 22.5 | 38.6 | 0.00 | 0.28 | 0.28 | 78 | 1021.9 |
| 20260905094517 | 18 | 246 | 19.3 | 35.4 | 0.00 | 0.28 | 0.28 | 77 | 1021.8 |
| 20260905093520 | 18 | 245 | 22.5 | 35.4 | 0.00 | 0.28 | 0.28 | 78 | 1021.8 |
| 20260905092522 | 17 | 244 | 17.7 | 30.6 | 0.00 | 0.28 | 0.28 | 79 | 1021.8 |
| 20260905091518 | 17 | 241 | 16.1 | 32.2 | 0.00 | 0.28 | 0.28 | 79 | 1021.9 |
| 20260905090520 | 17 | 239 | 14.5 | 25.7 | 0.00 | 0.28 | 0.28 | 79 | 1021.8 |
| 20260905085602 | 17 | 235 | 12.9 | 24.1 | 0.03 | 0.28 | 0.28 | 81 | 1021.9 |
| 20260905084519 | 16 | 207 | 8.0 | 20.9 | 0.05 | 0.28 | 0.28 | 83 | 1021.7 |
| 20260905083519 | 16 | 209 | 6.4 | 12.9 | 0.05 | 0.28 | 0.28 | 84 | 1021.8 |
| 20260905082542 | 16 | 205 | 6.4 | 14.5 | 0.05 | 0.28 | 0.28 | 85 | 1021.9 |
| 20260905081516 | 16 | 206 | 6.4 | 14.5 | 0.05 | 0.28 | 0.28 | 84 | 1022.2 |
| 20260905080521 | 16 | 218 | 6.4 | 14.5 | 0.05 | 0.25 | 0.25 | 85 | 1022.5 |
| 20260905075517 | 16 | 210 | 6.4 | 14.5 | 0.03 | 0.25 | 0.25 | 85 | 1022.4 |
| 20260905074518 | 16 | 205 | 11.3 | 20.9 | 0.03 | 0.23 | 0.23 | 85 | 1022.5 |
| 20260905073522 | 16 | 202 | 8.0 | 16.1 | 0.08 | 0.23 | 0.23 | 85 | 1022.5 |
| 20260905072517 | 16 | 226 | 4.8 | 12.9 | 0.13 | 0.23 | 0.23 | 85 | 1022.3 |
| 20260905071520 | 15 | 210 | 4.8 | 11.3 | 0.13 | 0.23 | 0.23 | 86 | 1022.6 |
| 20260905070541 | 15 | 208 | 4.8 | 11.3 | 0.13 | 0.23 | 0.23 | 87 | 1022.4 |
| 20260905065519 | 15 | 210 | 4.8 | 9.7 | 0.15 | 0.23 | 0.23 | 85 | 1021.8 |
| 20260905064519 | 15 | 151 | 4.8 | 9.7 | 0.15 | 0.20 | 0.20 | 84 | 1021.5 |
| 20260905063523 | 16 | 226 | 6.4 | 14.5 | 0.08 | 0.15 | 0.15 | 83 | 1022.5 |
| 20260905062517 | 16 | 251 | 8.0 | 14.5 | 0.03 | 0.10 | 0.10 | 81 | 1022.0 |
| 20260905061521 | 16 | 194 | 3.2 | 6.4 | 0.03 | 0.10 | 0.10 | 79 | 1021.3 |
| 20260905060520 | 16 | 232 | 6.4 | 11.3 | 0.03 | 0.10 | 0.10 | 75 | 1021.4 |
| 20260905055519 | 17 | 247 | 3.2 | 9.7 | 0.00 | 0.08 | 0.08 | 70 | 1021.5 |
| 20260905054519 | 17 | 302 | 4.8 | 12.9 | 0.00 | 0.08 | 0.08 | 67 | 1021.4 |
| 20260905053520 | 18 | 292 | 8.0 | 19.3 | 0.00 | 0.08 | 0.08 | 61 | 1020.9 |
| 20260905052518 | 19 | 349 | 6.4 | 16.1 | 0.00 | 0.08 | 0.08 | 60 | 1020.6 |
| 20260905051518 | 19 | 7 | 8.0 | 14.5 | 0.00 | 0.08 | 0.08 | 60 | 1019.6 |
| 20260905050520 | 19 | 20 | 6.4 | 11.3 | 0.03 | 0.08 | 0.08 | 59 | 1019.8 |
| 20260905045522 | 19 | 13 | 8.0 | 17.7 | 0.03 | 0.08 | 0.08 | 60 | 1019.3 |
| 20260905044523 | 19 | 9 | 6.4 | 12.9 | 0.03 | 0.08 | 0.08 | 64 | 1019.2 |
| 20260905043517 | 18 | 24 | 6.4 | 17.7 | 0.03 | 0.08 | 0.08 | 69 | 1019.0 |
| 20260905042521 | 18 | 19 | 4.8 | 9.7 | 0.05 | 0.08 | 0.08 | 69 | 1019.0 |
| 20260905041522 | 19 | 131 | 3.2 | 8.0 | 0.05 | 0.08 | 0.08 | 70 | 1019.0 |
| 20260905040539 | 19 | 11 | 3.2 | 9.7 | 0.03 | 0.05 | 0.05 | 68 | 1018.7 |
| 20260905035521 | 19 | 6 | 4.8 | 9.7 | 0.03 | 0.05 | 0.05 | 67 | 1018.5 |
| 20260905034543 | 19 | 23 | 3.2 | 9.7 | 0.03 | 0.05 | 0.05 | 69 | 1018.4 |
| 20260905033518 | 20 | 357 | 6.4 | 11.3 | 0.03 | 0.05 | 0.05 | 66 | 1018.4 |
| 20260905032519 | 21 | 324 | 8.0 | 16.1 | 0.00 | 0.03 | 0.03 | 58 | 1018.3 |
| 20260905031521 | 21 | 9 | 8.0 | 16.1 | 0.00 | 0.03 | 0.03 | 61 | 1017.9 |
| 20260905030518 | 21 | 20 | 8.0 | 17.7 | 0.00 | 0.03 | 0.03 | 63 | 1017.4 |
| 20260905025519 | 23 | 344 | 11.3 | 29.0 | 0.00 | 0.03 | 0.03 | 59 | 1016.6 |
| 20260905024519 | 24 | 239 | 9.7 | 20.9 | 0.03 | 0.03 | 0.03 | 51 | 1015.3 |
| 20260905023522 | 23 | 222 | 8.0 | 17.7 | 0.03 | 0.03 | 0.03 | 53 | 1015.0 |
| 20260905022520 | 23 | 253 | 9.7 | 16.1 | 0.03 | 0.03 | 0.03 | 55 | 1014.8 |
| 20260905021602 | 22 | 247 | 9.7 | 19.3 | 0.03 | 0.03 | 0.03 | 58 | 1014.7 |
| 20260905020518 | 22 | 243 | 4.8 | 9.7 | 0.03 | 0.03 | 0.03 | 65 | 1014.8 |
| 20260905015518 | 22 | 238 | 4.8 | 14.5 | 0.03 | 0.03 | 0.03 | 60 | 1014.9 |
| 20260905014520 | 24 | 255 | 11.3 | 20.9 | 0.00 | 0.00 | 0.00 | 49 | 1014.9 |
| 20260905013519 | 25 | 258 | 9.7 | 16.1 | 0.00 | 0.00 | 0.00 | 49 | 1014.7 |
| 20260905012520 | 25 | 251 | 9.7 | 20.9 | 0.00 | 0.00 | 0.00 | 45 | 1014.7 |
| 20260905011521 | 25 | 241 | 8.0 | 20.9 | 0.00 | 0.00 | 0.00 | 45 | 1014.6 |
| 20260905010518 | 25 | 234 | 8.0 | 16.1 | 0.00 | 0.00 | 0.00 | 45 | 1014.4 |
| 20260905005520 | 24 | 250 | 8.0 | 17.7 | 0.00 | 0.00 | 0.00 | 47 | 1014.4 |
| 20260905004540 | 21 | 260 | 4.8 | 8.0 | 0.00 | 0.00 | 0.00 | 56 | 1014.4 |
| 20260905003519 | 21 | 219 | 0.0 | 3.2 | 0.00 | 0.00 | 0.00 | 58 | 1014.4 |
| 20260905002521 | 21 | 221 | 3.2 | 6.4 | 0.00 | 0.00 | 0.00 | 58 | 1014.5 |
| 20260905001519 | 21 | 31 | 1.6 | 3.2 | 0.00 | 0.00 | 0.00 | 57 | 1014.4 |
| 20260905000520 | 22 | 330 | 1.6 | 4.8 | 0.00 | 0.00 | 0.00 | 55 | 1014.2 |
| 20260904235521 | 22 | 298 | 4.8 | 9.7 | 0.00 | 0.00 | 0.00 | 53 | 1014.0 |
| 20260904234539 | 22 | 255 | 8.0 | 16.1 | 0.00 | 0.00 | 0.00 | 54 | 1014.1 |
| 20260904233519 | 21 | 253 | 3.2 | 6.4 | 0.00 | 0.00 | 0.00 | 57 | 1014.1 |
| 20260904232518 | 20 | 251 | 3.2 | 6.4 | 0.00 | 0.00 | 0.00 | 58 | 1014.1 |
| 20260904231518 | 20 | 287 | 0.0 | 3.2 | 0.00 | 0.00 | 0.00 | 59 | 1014.1 |
| 20260904230520 | 20 | 153 | 0.0 | 4.8 | 0.00 | 0.00 | 0.00 | 59 | 1014.1 |
| 20260904225517 | 21 | 121 | 0.0 | 3.2 | 0.00 | 0.00 | 0.00 | 59 | 1013.9 |
| 20260904224519 | 21 | 82 | 0.0 | 3.2 | 0.00 | 0.00 | 0.00 | 57 | 1013.9 |
| 20260904223520 | 21 | 130 | 3.2 | 6.4 | 0.00 | 0.00 | 0.00 | 57 | 1013.8 |